Thursday, May 24, 2018, 12:54 PM CDT
Back to Local

KC09, Morris, Morris Municipal-james R Washburn Field Airport

Location: Morris, IL, United States Lat: 41.425
Local Time: 12:54 PM CDT (17:54 GMT) Lon: -88.419
Time Zone: US/Central Elev: 583 ft

Show me the last for .
Show Decoded

2018-05-24 12:35 METAR KC09 241735Z AUTO 18009KT 10SM CLR 29/13 A3013 RMK AO2 T02890134 =
2018-05-24 12:15 METAR KC09 241715Z AUTO 16004KT 10SM CLR 29/13 A3014 RMK AO2 T02850129 =
2018-05-24 11:55 METAR KC09 241655Z AUTO 20005KT 10SM CLR 28/13 A3015 RMK AO2 T02790134 =
2018-05-24 11:35 METAR KC09 241635Z AUTO 17007KT 10SM CLR 28/13 A3016 RMK AO2 T02770130 =
2018-05-24 11:15 METAR KC09 241615Z AUTO 17008KT 130V200 10SM CLR 27/14 A3017 RMK AO2 T02710138 =
2018-05-24 10:55 METAR KC09 241555Z AUTO 17007KT 10SM CLR 27/14 A3017 RMK AO2 T02690139 =
2018-05-24 10:35 METAR KC09 241535Z AUTO 18009KT 10SM CLR 27/14 A3018 RMK AO2 T02650140 =
2018-05-24 10:15 METAR KC09 241515Z AUTO 17008KT 10SM CLR 26/15 A3017 RMK AO2 T02600148 =
2018-05-24 09:55 METAR KC09 241455Z AUTO 16007KT 10SM CLR 25/14 A3018 RMK AO2 T02480144 =
2018-05-24 09:35 METAR KC09 241435Z AUTO 18008KT 10SM CLR 24/15 A3018 RMK AO2 T02430146 =
2018-05-24 09:15 METAR KC09 241415Z AUTO 16007KT 10SM CLR 24/15 A3019 RMK AO2 T02360146 =
2018-05-24 08:55 METAR KC09 241355Z AUTO 16007KT 10SM CLR 23/15 A3019 RMK AO2 T02260145 =
2018-05-24 08:35 METAR KC09 241335Z AUTO 16007KT 10SM CLR 22/15 A3020 RMK AO2 T02150145 =
2018-05-24 08:15 METAR KC09 241315Z AUTO 16005KT 10SM CLR 21/14 A3020 RMK AO2 T02070140 =
2018-05-24 07:55 METAR KC09 241255Z AUTO 17004KT 10SM CLR 20/15 A3020 RMK AO2 T01980145 =
2018-05-24 07:35 METAR KC09 241235Z AUTO 15004KT 10SM CLR 19/14 A3020 RMK AO2 T01860139 =
2018-05-24 07:15 METAR KC09 241215Z AUTO 00000KT 10SM CLR 18/14 A3020 RMK AO2 T01760141 =
2018-05-24 06:55 METAR KC09 241155Z AUTO 09003KT 10SM CLR 16/13 A3020 RMK AO2 T01640131 10166
                 20140 =
2018-05-24 06:35 METAR KC09 241135Z AUTO 07003KT 10SM CLR 15/13 A3020 RMK AO2 T01490127 =
2018-05-24 06:15 METAR KC09 241115Z AUTO 00000KT 10SM CLR 14/12 A3019 RMK AO2 T01440120 =
2018-05-24 05:55 METAR KC09 241055Z AUTO 00000KT 10SM CLR 14/12 A3018 RMK AO2 T01440118 =
2018-05-24 05:35 METAR KC09 241035Z AUTO 00000KT 10SM CLR 14/12 A3018 RMK AO2 T01400116 =
2018-05-24 05:15 METAR KC09 241015Z AUTO 06003KT 10SM CLR 15/12 A3018 RMK AO2 T01450116 =
2018-05-24 04:55 METAR KC09 240955Z AUTO 06003KT 10SM CLR 15/12 A3017 RMK AO2 T01460116 =
2018-05-24 04:35 METAR KC09 240935Z AUTO 07003KT 10SM CLR 15/12 A3016 RMK AO2 T01460115 =
2018-05-24 04:15 METAR KC09 240915Z AUTO 00000KT 10SM CLR 15/12 A3016 RMK AO2 T01480115 =
2018-05-24 03:55 METAR KC09 240855Z AUTO 00000KT 10SM CLR 15/12 A3016 RMK AO2 T01490115 =
2018-05-24 03:35 METAR KC09 240835Z AUTO 05003KT 10SM CLR 15/11 A3016 RMK AO2 T01490113 =
2018-05-24 03:15 METAR KC09 240815Z AUTO 00000KT 10SM CLR 15/11 A3015 RMK AO2 T01500113 =
2018-05-24 02:55 METAR KC09 240755Z AUTO 00000KT 10SM CLR 15/11 A3016 RMK AO2 T01500112 =
2018-05-24 02:35 METAR KC09 240735Z AUTO 00000KT 10SM CLR 15/12 A3016 RMK AO2 T01450120 =
2018-05-24 02:15 METAR KC09 240715Z AUTO 00000KT 10SM CLR 15/12 A3016 RMK AO2 T01450119 =
2018-05-24 01:55 METAR KC09 240655Z AUTO 00000KT 10SM CLR 15/12 A3016 RMK AO2 T01480116 =
2018-05-24 01:35 METAR KC09 240635Z AUTO 08003KT 10SM CLR 16/11 A3016 RMK AO2 T01550114 =
2018-05-24 01:15 METAR KC09 240615Z AUTO 07003KT 10SM CLR 17/11 A3016 RMK AO2 T01660108 =
2018-05-24 00:55 METAR KC09 240555Z AUTO 07003KT 10SM CLR 16/11 A3016 RMK AO2 T01640108 10261
                 20163 402670108 =
2018-05-24 00:35 METAR KC09 240535Z AUTO 00000KT 10SM CLR 16/11 A3017 RMK AO2 T01640110 =
2018-05-24 00:15 METAR KC09 240515Z AUTO 06003KT 10SM CLR 17/11 A3017 RMK AO2 T01700108 =
2018-05-23 23:55 METAR KC09 240455Z AUTO 07005KT 10SM CLR 18/10 A3018 RMK AO2 T01790102 =
2018-05-23 23:35 METAR KC09 240435Z AUTO 07005KT 10SM CLR 18/10 A3017 RMK AO2 T01810099 =
2018-05-23 23:15 METAR KC09 240415Z AUTO 08005KT 10SM CLR 18/10 A3017 RMK AO2 T01830098 =
2018-05-23 22:55 METAR KC09 240355Z AUTO 08004KT 10SM CLR 19/11 A3017 RMK AO2 T01860107 =
2018-05-23 22:35 METAR KC09 240335Z AUTO 07003KT 10SM CLR 19/11 A3017 RMK AO2 T01900114 =
2018-05-23 22:15 METAR KC09 240315Z AUTO 06004KT 10SM CLR 20/11 A3017 RMK AO2 T02000110 =
2018-05-23 21:55 METAR KC09 240255Z AUTO 07006KT 10SM CLR 21/11 A3016 RMK AO2 T02070110 =
2018-05-23 21:35 METAR KC09 240235Z AUTO 06003KT 10SM CLR 21/12 A3016 RMK AO2 T02060115 =
2018-05-23 21:15 METAR KC09 240215Z AUTO 07004KT 10SM CLR 22/11 A3016 RMK AO2 T02150112 =
2018-05-23 20:55 METAR KC09 240155Z AUTO 07003KT 10SM CLR 22/12 A3015 RMK AO2 T02240116 =
2018-05-23 20:35 METAR KC09 240135Z AUTO 07004KT 10SM CLR 23/12 A3014 RMK AO2 T02290118 =
2018-05-23 20:15 METAR KC09 240115Z AUTO 09004KT 10SM CLR 23/13 A3013 RMK AO2 T02340126 =
2018-05-23 19:55 METAR KC09 240055Z AUTO 08004KT 10SM CLR 25/13 A3013 RMK AO2 T02460131 =
2018-05-23 19:35 METAR KC09 240035Z AUTO 07003KT 10SM CLR 25/13 A3012 RMK AO2 T02530126 =
2018-05-23 19:15 METAR KC09 240015Z AUTO 00000KT 10SM CLR 26/13 A3012 RMK AO2 T02570132 =
2018-05-23 18:55 METAR KC09 232355Z AUTO 08003KT 10SM CLR 26/14 A3011 RMK AO2 T02610137 10267
                 20239 =
2018-05-23 18:35 METAR KC09 232335Z AUTO 00000KT 10SM CLR 26/13 A3011 RMK AO2 T02610133 =
2018-05-23 18:15 METAR KC09 232315Z AUTO 00000KT 10SM CLR 27/14 A3011 RMK AO2 T02660137 =
2018-05-23 17:55 METAR KC09 232255Z AUTO 00000KT 10SM CLR 26/13 A3012 RMK AO2 T02640126 =
2018-05-23 17:35 METAR KC09 232235Z AUTO 11005KT 10SM CLR 27/13 A3012 RMK AO2 T02650134 =
2018-05-23 17:15 METAR KC09 232215Z AUTO 14004KT 10SM CLR 27/13 A3012 RMK AO2 T02660132 =
2018-05-23 16:55 METAR KC09 232155Z AUTO 13005KT 10SM CLR 27/13 A3012 RMK AO2 T02660128 =
2018-05-23 16:35 METAR KC09 232135Z AUTO 12009KT 10SM CLR 27/14 A3012 RMK AO2 T02670136 =
2018-05-23 16:15 METAR KC09 232115Z AUTO 09006KT 10SM CLR 26/14 A3013 RMK AO2 T02640137 =
2018-05-23 15:55 METAR KC09 232055Z AUTO 11005KT 10SM CLR 27/15 A3014 RMK AO2 T02670150 =
2018-05-23 15:35 METAR KC09 232035Z AUTO 12004KT 10SM CLR 26/15 A3015 RMK AO2 T02630151 =
2018-05-23 15:15 METAR KC09 232015Z AUTO 00000KT 10SM CLR 26/14 A3016 RMK AO2 T02610144 =
2018-05-23 14:55 METAR KC09 231955Z AUTO 19003KT 10SM CLR 26/15 A3017 RMK AO2 T02590150 =
2018-05-23 14:35 METAR KC09 231935Z AUTO 00000KT 10SM CLR 25/15 A3017 RMK AO2 T02540152 =
2018-05-23 14:15 METAR KC09 231915Z AUTO 05003KT 10SM CLR 26/15 A3018 RMK AO2 T02550152 =
2018-05-23 13:55 METAR KC09 231855Z AUTO 00000KT 10SM CLR 25/16 A3018 RMK AO2 T02500155 =
2018-05-23 13:35 METAR KC09 231835Z AUTO 00000KT 10SM CLR 25/15 A3018 RMK AO2 T02450151 =
2018-05-23 13:15 METAR KC09 231815Z AUTO 00000KT 10SM CLR 24/16 A3019 RMK AO2 T02430156 =
2018-05-23 12:55 METAR KC09 231755Z AUTO 00000KT 10SM CLR 24/16 A3019 RMK AO2 T02390157 10243
                 20129 =

Support USWX by starting your Amazon purchase here.